Time;durP1;ratioP1;P1;durP2;ratioP2;P2;SDS_P1;SDS_P2;PMS_P1;PMS_P2;Temp;Humidity;BMP_temperature;BMP_pressure;BME280_temperature;BME280_humidity;BME280_pressure;Samples;Min_cycle;Max_cycle;Signal;HPM_P1;HPM_P2
2022/11/20 00:01:57;;;;;;;0.00;0.00;;;;;;;-1.48;100.00;101130.22;5222163;28;20509;-70
2022/11/20 00:04:28;;;;;;;1.02;0.15;;;;;;;-1.51;100.00;101139.00;5221496;28;20555;-69
2022/11/20 00:06:59;;;;;;;0.17;0.00;;;;;;;-1.52;100.00;101139.03;5222529;28;20440;-69
2022/11/20 00:09:30;;;;;;;0.20;0.10;;;;;;;-1.54;100.00;101139.06;5229929;28;20124;-69
2022/11/20 00:12:02;;;;;;;0.15;0.03;;;;;;;-1.58;100.00;101138.28;5224984;28;20086;-69
2022/11/20 00:14:33;;;;;;;0.00;0.00;;;;;;;-1.61;100.00;101132.22;5231052;28;20041;-69
2022/11/20 00:17:05;;;;;;;0.30;0.17;;;;;;;-1.62;100.00;101141.00;5222639;28;20067;-69
2022/11/20 00:19:36;;;;;;;0.05;0.00;;;;;;;-1.64;100.00;101133.19;5227770;28;20052;-69
2022/11/20 00:22:07;;;;;;;0.95;0.20;;;;;;;-1.65;100.00;101136.69;5222101;28;20547;-69
2022/11/20 00:24:38;;;;;;;0.38;0.00;;;;;;;-1.67;100.00;101133.25;5223484;28;20489;-69
2022/11/20 00:27:09;;;;;;;0.08;0.00;;;;;;;-1.71;100.00;101128.97;5224318;28;20392;-69
2022/11/20 00:29:41;;;;;;;0.05;0.00;;;;;;;-1.73;100.00;101125.50;5220944;28;20776;-69
2022/11/20 00:32:12;;;;;;;0.10;0.00;;;;;;;-1.75;100.00;101127.31;5219576;28;20046;-71
2022/11/20 00:34:43;;;;;;;0.43;0.10;;;;;;;-1.78;100.00;101128.25;5219940;28;20033;-69
2022/11/20 00:37:15;;;;;;;0.55;0.00;;;;;;;-1.78;100.00;101130.84;5220847;28;20052;-69
2022/11/20 00:39:46;;;;;;;0.00;0.00;;;;;;;-1.80;100.00;101121.34;5226166;28;20151;-69
2022/11/20 00:42:17;;;;;;;0.68;0.10;;;;;;;-1.84;100.00;101125.75;5225081;28;20395;-70
2022/11/20 00:44:49;;;;;;;0.13;0.00;;;;;;;-1.85;100.00;101128.41;5220484;28;20529;-69
2022/11/20 00:47:20;;;;;;;0.45;0.03;;;;;;;-1.90;100.00;101120.63;5226830;28;20040;-69
2022/11/20 00:49:51;;;;;;;1.15;0.32;;;;;;;-1.92;100.00;101125.03;5232154;28;20033;-69
2022/11/20 00:52:22;;;;;;;0.45;0.15;;;;;;;-1.95;100.00;101130.34;5233365;28;20053;-69
2022/11/20 00:54:54;;;;;;;0.57;0.10;;;;;;;-1.95;100.00;101130.34;5232636;28;20067;-69
2022/11/20 00:57:25;;;;;;;0.10;0.00;;;;;;;-2.00;100.00;101130.41;5226693;28;20030;-69
2022/11/20 00:59:57;;;;;;;0.68;0.10;;;;;;;-2.00;100.00;101126.94;5225590;28;20033;-69
2022/11/20 01:02:28;;;;;;;0.10;0.00;;;;;;;-2.04;100.00;101125.28;5224881;28;20052;-69
2022/11/20 01:04:59;;;;;;;0.35;0.15;;;;;;;-2.08;100.00;101128.88;5218129;28;20084;-69
2022/11/20 01:07:31;;;;;;;0.60;0.00;;;;;;;-2.11;100.00;101124.56;5216677;28;20530;-69
2022/11/20 01:10:03;;;;;;;0.70;0.15;;;;;;;-2.12;100.00;101127.19;5218150;28;20033;-69
2022/11/20 01:12:34;;;;;;;0.43;0.10;;;;;;;-2.13;100.00;101120.25;5223278;28;20102;-69
2022/11/20 01:15:06;;;;;;;0.10;0.00;;;;;;;-2.15;100.00;101129.88;5216847;28;20037;-70
2022/11/20 01:17:37;;;;;;;0.43;0.10;;;;;;;-2.17;100.00;101129.88;5219001;28;20088;-70
2022/11/20 01:20:09;;;;;;;0.00;0.00;;;;;;;-2.19;100.00;101126.44;5218257;28;20032;-69
2022/11/20 01:22:40;;;;;;;0.10;0.00;;;;;;;-2.23;100.00;101123.03;5216187;28;20052;-69
2022/11/20 01:25:12;;;;;;;0.08;0.00;;;;;;;-2.23;100.00;101130.88;5220307;28;20037;-69
2022/11/20 01:27:43;;;;;;;0.32;0.00;;;;;;;-2.24;100.00;101133.53;5220317;28;20037;-69
2022/11/20 01:30:14;;;;;;;0.00;0.00;;;;;;;-2.26;100.00;101128.31;5220422;28;20041;-69
2022/11/20 01:32:46;;;;;;;0.00;0.00;;;;;;;-2.26;100.00;101124.84;5220546;28;20112;-69
2022/11/20 01:35:17;;;;;;;0.00;0.00;;;;;;;-2.27;100.00;101123.13;5217756;28;20044;-69
2022/11/20 01:37:50;;;;;;;0.28;0.00;;;;;;;-2.29;100.00;101120.53;5225219;28;20104;-69
2022/11/20 01:40:21;;;;;;;0.90;0.20;;;;;;;-2.31;100.00;101114.47;5219829;28;20786;-69
2022/11/20 01:43:22;;;;;;;0.10;0.00;;;;;;;-2.32;100.00;101115.38;5222461;28;20026;-69
2022/11/20 01:46:13;;;;;;;0.10;0.00;;;;;;;-2.33;100.00;101121.50;5222413;28;20033;-69
2022/11/20 01:49:00;;;;;;;0.57;0.13;;;;;;;-2.35;100.00;101123.28;5217453;28;20048;-70
2022/11/20 01:51:43;;;;;;;0.88;0.03;;;;;;;-2.37;100.00;101125.06;5217296;28;20513;-69
2022/11/20 01:54:38;;;;;;;0.30;0.00;;;;;;;-2.40;100.00;101130.31;5217710;28;20042;-69
2022/11/20 01:57:11;;;;;;;;;;;;;;;-2.40;100.00;101130.31;5222538;28;20030;-69
2022/11/20 01:59:53;;;;;;;0.10;0.00;;;;;;;-2.43;100.00;101125.16;5217435;28;20002;-69
2022/11/20 02:02:25;;;;;;;0.10;0.05;;;;;;;-2.45;100.00;101125.19;5220032;28;20132;-69
2022/11/20 02:05:03;;;;;;;0.55;0.00;;;;;;;-2.44;100.00;101116.44;5217645;28;20037;-69
2022/11/20 02:07:34;;;;;;;0.10;0.00;;;;;;;-2.49;100.00;101109.59;5218841;28;20045;-69
2022/11/20 02:10:06;;;;;;;3.20;0.22;;;;;;;-2.49;100.00;101109.59;5217988;28;20381;-69
2022/11/20 02:15:28;;;;;;;0.00;0.00;;;;;;;-2.53;100.00;101110.53;5216521;28;20050;-69
2022/11/20 02:17:59;;;;;;;0.28;0.00;;;;;;;-2.56;100.00;101107.09;5219221;28;20038;-69
2022/11/20 02:20:31;;;;;;;0.38;0.03;;;;;;;-2.56;100.00;101108.84;5217027;28;20029;-70
2022/11/20 02:23:08;;;;;;;0.00;0.00;;;;;;;-2.58;100.00;101105.41;5218751;28;20095;-69
2022/11/20 02:25:41;;;;;;;0.00;0.00;;;;;;;-2.58;100.00;101106.25;5218431;28;20396;-69
2022/11/20 02:28:13;;;;;;;0.38;0.00;;;;;;;-2.58;100.00;101106.25;5225225;28;21676;-69
2022/11/20 02:30:44;;;;;;;0.22;0.00;;;;;;;-2.57;100.00;101107.13;5220421;28;20546;-69
2022/11/20 02:33:15;;;;;;;0.63;0.00;;;;;;;-2.57;100.00;101114.94;5222642;28;20047;-69
2022/11/20 02:35:47;;;;;;;0.25;0.00;;;;;;;-2.56;100.00;101107.09;5220182;28;20481;-69
2022/11/20 02:38:19;;;;;;;0.40;0.10;;;;;;;-2.59;100.00;101103.66;5224904;28;20486;-69
2022/11/20 02:40:50;;;;;;;0.10;0.00;;;;;;;-2.65;100.00;101109.84;5222257;28;20025;-69
2022/11/20 02:43:23;;;;;;;0.00;0.00;;;;;;;-2.65;100.00;101099.41;5228757;28;20128;-69
2022/11/20 02:45:54;;;;;;;0.20;0.00;;;;;;;-2.63;100.00;101105.50;5223863;28;20083;-69
2022/11/20 02:48:25;;;;;;;0.10;0.00;;;;;;;-2.64;100.00;101111.59;5220199;28;20391;-70
2022/11/20 02:50:56;;;;;;;0.00;0.00;;;;;;;-2.67;100.00;101116.88;5220521;28;20571;-69
2022/11/20 02:53:28;;;;;;;0.00;0.00;;;;;;;-2.66;100.00;101110.75;5228867;28;20037;-69
2022/11/20 02:55:59;;;;;;;0.00;0.00;;;;;;;-2.64;100.00;101108.97;5231903;28;20037;-69
2022/11/20 02:58:30;;;;;;;0.10;0.00;;;;;;;-2.62;100.00;101104.59;5226480;28;20096;-69
2022/11/20 03:01:02;;;;;;;0.32;0.10;;;;;;;-2.60;100.00;101094.97;5225278;28;20044;-68
2022/11/20 03:03:33;;;;;;;0.00;0.00;;;;;;;-2.60;100.00;101102.81;5226464;28;20116;-69
2022/11/20 03:06:05;;;;;;;0.00;0.00;;;;;;;-2.61;100.00;101097.59;5222560;28;20025;-68
2022/11/20 03:08:36;;;;;;;0.00;0.00;;;;;;;-2.60;100.00;101092.38;5224152;28;20037;-69
2022/11/20 03:11:08;;;;;;;0.40;0.08;;;;;;;-2.60;100.00;101097.59;5223988;28;20107;-69
2022/11/20 03:13:39;;;;;;;0.20;0.00;;;;;;;-2.58;100.00;101094.97;5220484;28;20167;-68
2022/11/20 03:16:19;;;;;;;0.00;0.00;;;;;;;-2.57;100.00;101100.16;5222223;28;20052;-69
2022/11/20 03:18:52;;;;;;;0.00;0.00;;;;;;;-2.56;100.00;101093.19;5221700;28;20037;-69
2022/11/20 03:21:23;;;;;;;0.00;0.00;;;;;;;-2.54;100.00;101088.78;5223109;28;20037;-69
2022/11/20 03:23:54;;;;;;;0.08;0.00;;;;;;;-2.50;100.00;101086.97;5224248;28;20091;-69
2022/11/20 03:26:27;;;;;;;0.10;0.00;;;;;;;-2.48;100.00;101088.66;5221174;28;20387;-69
2022/11/20 03:29:00;;;;;;;0.00;0.00;;;;;;;-2.44;100.00;101092.09;5221589;28;20029;-69
2022/11/20 03:31:37;;;;;;;0.00;0.00;;;;;;;-2.43;100.00;101088.59;5221437;28;20057;-69
2022/11/20 03:34:10;;;;;;;0.00;0.00;;;;;;;-2.42;100.00;101082.47;5222615;28;20044;-68
2022/11/20 03:36:42;;;;;;;0.45;0.08;;;;;;;-2.40;100.00;101078.94;5223634;28;20183;-69
2022/11/20 03:39:13;;;;;;;0.00;0.00;;;;;;;-2.34;100.00;101071.88;5226596;28;20029;-69
2022/11/20 03:41:45;;;;;;;0.00;0.00;;;;;;;-2.34;100.00;101062.25;5224975;28;20057;-71
2022/11/20 03:44:16;;;;;;;0.28;0.13;;;;;;;-2.34;100.00;101061.41;5226749;28;20021;-69
2022/11/20 03:46:47;;;;;;;0.00;0.00;;;;;;;-2.32;100.00;101059.63;5224587;28;20079;-69
2022/11/20 03:49:18;;;;;;;0.20;0.00;;;;;;;-2.28;100.00;101059.56;5227618;28;20041;-68
2022/11/20 03:51:50;;;;;;;0.20;0.00;;;;;;;-2.24;100.00;101052.50;5220742;28;20045;-68
2022/11/20 03:54:21;;;;;;;0.35;0.13;;;;;;;-2.19;100.00;101054.16;5229705;28;20022;-69
2022/11/20 03:56:52;;;;;;;0.70;0.10;;;;;;;-2.17;100.00;101051.47;5227757;28;20033;-69
2022/11/20 03:59:24;;;;;;;0.30;0.08;;;;;;;-2.14;100.00;101046.19;5230137;28;20029;-69
2022/11/20 04:01:55;;;;;;;0.10;0.00;;;;;;;-2.14;100.00;101038.34;5226428;28;20407;-70
2022/11/20 04:04:26;;;;;;;0.10;0.00;;;;;;;-2.12;100.00;101039.19;5228179;28;20479;-69
2022/11/20 04:06:57;;;;;;;0.10;0.00;;;;;;;-2.11;100.00;101034.81;5224748;28;20578;-69
2022/11/20 04:09:29;;;;;;;0.10;0.00;;;;;;;-2.11;100.00;101042.66;5228847;28;20522;-69
2022/11/20 04:12:00;;;;;;;0.00;0.00;;;;;;;-2.13;100.00;101050.50;5235524;28;20025;-69
2022/11/20 04:14:31;;;;;;;0.35;0.20;;;;;;;-2.14;100.00;101045.34;5233753;28;20104;-69
2022/11/20 04:17:03;;;;;;;0.43;0.08;;;;;;;-2.11;100.00;101050.50;5224727;28;20034;-69
2022/11/20 04:19:34;;;;;;;0.30;0.00;;;;;;;-2.13;100.00;101050.50;5226742;28;20486;-69
2022/11/20 04:22:06;;;;;;;0.00;0.00;;;;;;;-2.13;100.00;101050.50;5232516;28;20108;-69
2022/11/20 04:24:37;;;;;;;0.25;0.03;;;;;;;-2.12;100.00;101044.41;5235221;28;20029;-70
2022/11/20 04:27:08;;;;;;;0.00;0.00;;;;;;;-2.12;100.00;101039.19;5231235;28;20035;-69
2022/11/20 04:29:39;;;;;;;0.10;0.10;;;;;;;-2.12;100.00;101031.34;5226545;28;20072;-69
2022/11/20 04:32:11;;;;;;;0.00;0.00;;;;;;;-2.13;100.00;101040.06;5226304;28;20037;-69
2022/11/20 04:34:42;;;;;;;1.02;0.00;;;;;;;-2.11;100.00;101037.41;5236151;28;20033;-69
2022/11/20 04:37:13;;;;;;;0.40;0.03;;;;;;;-2.11;100.00;101042.66;5226711;28;20518;-70
2022/11/20 04:39:44;;;;;;;0.43;0.08;;;;;;;-2.11;100.00;101038.31;5232773;28;20760;-70
2022/11/20 04:42:31;;;;;;;0.10;0.00;;;;;;;-2.13;100.00;101045.28;5226664;28;20468;-69
2022/11/20 04:45:02;;;;;;;0.08;0.00;;;;;;;-2.13;100.00;101034.84;5224041;28;20037;-70
2022/11/20 04:47:33;;;;;;;0.22;0.03;;;;;;;-2.12;100.00;101035.72;5224088;28;20103;-69
2022/11/20 04:50:05;;;;;;;0.00;0.00;;;;;;;-2.13;100.00;101027.00;5229069;28;20029;-69
2022/11/20 04:52:36;;;;;;;0.00;0.00;;;;;;;-2.12;100.00;101028.72;5225204;28;20037;-70
2022/11/20 04:55:08;;;;;;;0.63;0.00;;;;;;;-2.13;100.00;101020.91;5227551;28;20488;-69
2022/11/20 04:57:39;;;;;;;0.20;0.00;;;;;;;-2.13;100.00;101029.59;5225159;28;20061;-69
2022/11/20 05:00:11;;;;;;;0.10;0.00;;;;;;;-2.13;100.00;101032.22;5221626;28;20784;-69
2022/11/20 05:02:42;;;;;;;0.13;0.00;;;;;;;-2.13;100.00;101027.00;5224467;28;20515;-69
2022/11/20 05:05:13;;;;;;;0.00;0.00;;;;;;;-2.13;100.00;101026.13;5226656;28;20029;-69
2022/11/20 05:07:45;;;;;;;0.10;0.03;;;;;;;-2.14;100.00;101024.44;5232016;28;20121;-71
2022/11/20 05:10:16;;;;;;;0.20;0.00;;;;;;;-2.15;100.00;101025.31;5229710;28;20021;-69
2022/11/20 05:12:47;;;;;;;0.38;0.10;;;;;;;-2.15;100.00;101018.31;5228392;28;20029;-69
2022/11/20 05:15:19;;;;;;;0.68;0.10;;;;;;;-2.17;100.00;101013.16;5225194;28;20032;-69
2022/11/20 05:17:51;;;;;;;0.35;0.03;;;;;;;-2.15;100.00;101013.09;5228410;28;21477;-69
2022/11/20 05:20:23;;;;;;;0.10;0.00;;;;;;;-2.14;100.00;101008.75;5232551;28;20564;-69
2022/11/20 05:22:57;;;;;;;0.05;0.00;;;;;;;-2.13;100.00;101013.06;5230674;28;20458;-69
2022/11/20 05:25:28;;;;;;;0.43;0.22;;;;;;;-2.14;100.00;100991.31;5226679;28;20048;-70
2022/11/20 05:27:59;;;;;;;0.75;0.20;;;;;;;-2.14;100.00;100996.53;5226586;28;20483;-68
2022/11/20 05:30:31;;;;;;;1.52;0.20;;;;;;;-2.12;100.00;100994.75;5230958;28;20491;-68
2022/11/20 05:33:02;;;;;;;1.02;0.10;;;;;;;-2.13;100.00;100995.63;5228157;28;20940;-69
2022/11/20 05:35:33;;;;;;;0.00;0.00;;;;;;;-2.14;100.00;100999.16;5227768;28;20369;-69
2022/11/20 05:38:04;;;;;;;0.40;0.00;;;;;;;-2.13;100.00;100997.38;5229028;28;20057;-68
2022/11/20 05:40:36;;;;;;;0.68;0.10;;;;;;;-2.12;100.00;100999.97;5228391;28;20507;-69
2022/11/20 05:43:07;;;;;;;0.10;0.00;;;;;;;-2.09;100.00;100999.03;5227838;28;20079;-69
2022/11/20 05:45:38;;;;;;;0.00;0.00;;;;;;;-2.09;100.00;101004.25;5233055;28;20075;-69
2022/11/20 05:48:10;;;;;;;0.30;0.00;;;;;;;-2.05;100.00;101005.91;5230804;28;20028;-69
2022/11/20 05:50:41;;;;;;;0.10;0.00;;;;;;;-2.02;100.00;101014.56;5229013;28;20444;-70
2022/11/20 05:53:12;;;;;;;0.00;0.00;;;;;;;-2.00;100.00;101009.28;5228638;28;20045;-69
2022/11/20 05:55:43;;;;;;;0.13;0.00;;;;;;;-2.01;100.00;101018.06;5224962;28;20033;-69
2022/11/20 05:58:15;;;;;;;0.00;0.00;;;;;;;-2.01;100.00;101018.91;5226933;28;20037;-69
2022/11/20 06:00:46;;;;;;;0.00;0.00;;;;;;;-1.99;100.00;101018.88;5222657;28;20048;-69
2022/11/20 06:03:17;;;;;;;0.40;0.20;;;;;;;-2.00;100.00;101023.22;5228985;28;20063;-68
2022/11/20 06:05:48;;;;;;;0.13;0.10;;;;;;;-1.95;100.00;101033.59;5226002;28;20112;-70
2022/11/20 06:08:20;;;;;;;0.05;0.00;;;;;;;-1.93;100.00;101029.19;5220011;28;20037;-69
2022/11/20 06:10:51;;;;;;;0.90;0.00;;;;;;;-1.89;100.00;101027.38;5227338;28;20029;-69
2022/11/20 06:13:23;;;;;;;0.15;0.00;;;;;;;-1.85;100.00;101029.03;5224672;28;20035;-69
2022/11/20 06:15:54;;;;;;;0.00;0.00;;;;;;;-1.80;100.00;101021.94;5224489;28;20051;-69
2022/11/20 06:18:28;;;;;;;0.00;0.00;;;;;;;-1.73;100.00;101035.72;5228679;28;20388;-69
2022/11/20 06:21:04;;;;;;;0.25;0.10;;;;;;;-1.67;100.00;101031.25;5230268;28;20571;-69
2022/11/20 06:23:36;;;;;;;0.20;0.00;;;;;;;-1.65;100.00;101021.59;5223041;28;20068;-69
2022/11/20 06:26:14;;;;;;;0.52;0.32;;;;;;;-1.58;100.00;101027.53;5219372;28;20049;-70
2022/11/20 06:28:46;;;;;;;0.30;0.03;;;;;;;-1.54;100.00;101023.94;5220317;28;20035;-69
2022/11/20 06:31:20;;;;;;;0.50;0.00;;;;;;;-1.49;100.00;101031.72;5222596;28;20464;-69
2022/11/20 06:33:52;;;;;;;0.00;0.00;;;;;;;-1.45;100.00;101028.13;5221934;28;20026;-68
2022/11/20 06:36:23;;;;;;;0.10;0.00;;;;;;;-1.44;100.00;101021.97;5222743;28;20032;-69
2022/11/20 06:38:54;;;;;;;0.25;0.10;;;;;;;-1.41;100.00;101021.91;5224157;28;20059;-69
2022/11/20 06:41:26;;;;;;;0.15;0.00;;;;;;;-1.38;100.00;101014.84;5223490;28;20022;-68
2022/11/20 06:43:57;;;;;;;0.00;0.00;;;;;;;-1.34;100.00;101012.13;5223160;28;20022;-69
2022/11/20 06:46:28;;;;;;;0.10;0.00;;;;;;;-1.29;100.00;101008.50;5225118;28;20672;-68
2022/11/20 06:48:59;;;;;;;0.30;0.00;;;;;;;-1.24;100.00;101011.88;5218728;28;20506;-69
2022/11/20 06:51:31;;;;;;;0.10;0.00;;;;;;;-1.21;100.00;101008.31;5213757;28;20156;-70
2022/11/20 06:54:02;;;;;;;0.45;0.20;;;;;;;-1.19;100.00;101004.78;5219059;28;20392;-69
2022/11/20 06:56:34;;;;;;;0.20;0.10;;;;;;;-1.17;100.00;101009.09;5224292;28;20384;-70
2022/11/20 06:59:06;;;;;;;0.03;0.00;;;;;;;-1.20;100.00;101012.66;5220042;28;20171;-70
2022/11/20 07:01:37;;;;;;;0.60;0.20;;;;;;;-1.26;100.00;101000.59;5226944;28;20025;-67
2022/11/20 07:04:09;;;;;;;0.10;0.05;;;;;;;-1.22;100.00;101007.47;5222697;28;20074;-70
2022/11/20 07:06:40;;;;;;;0.40;0.10;;;;;;;-1.19;100.00;101009.13;5219878;28;20025;-71
2022/11/20 07:09:11;;;;;;;0.30;0.10;;;;;;;-1.19;100.00;101017.88;5218940;28;20034;-69
2022/11/20 07:11:42;;;;;;;0.80;0.10;;;;;;;-1.19;100.00;101006.50;5221141;28;20025;-69
2022/11/20 07:14:14;;;;;;;0.20;0.00;;;;;;;-1.20;100.00;101012.66;5218570;28;20029;-70
2022/11/20 07:16:45;;;;;;;0.30;0.05;;;;;;;-1.19;100.00;101002.16;5219126;28;20033;-70
2022/11/20 07:19:16;;;;;;;0.43;0.10;;;;;;;-1.16;100.00;101003.84;5222543;28;20021;-70
2022/11/20 07:21:47;;;;;;;1.58;0.10;;;;;;;-1.12;100.00;101002.00;5223716;28;20051;-70
2022/11/20 07:24:19;;;;;;;0.40;0.10;;;;;;;-1.11;100.00;100995.84;5220445;28;20640;-70
2022/11/20 07:26:50;;;;;;;0.22;0.00;;;;;;;-1.08;100.00;100991.41;5220811;28;20103;-70
2022/11/20 07:29:21;;;;;;;0.38;0.00;;;;;;;-1.06;100.00;101000.06;5220332;28;20399;-70
2022/11/20 07:31:52;;;;;;;0.08;0.03;;;;;;;-1.03;100.00;101000.00;5221895;28;20499;-70
2022/11/20 07:34:24;;;;;;;0.00;0.00;;;;;;;-1.01;100.00;101000.81;5218129;28;20045;-72
2022/11/20 07:36:55;;;;;;;0.45;0.17;;;;;;;-1.00;100.00;100993.81;5219552;28;20025;-70
2022/11/20 07:39:26;;;;;;;0.50;0.10;;;;;;;-0.99;100.00;100979.84;5219094;28;20675;-70
2022/11/20 07:41:57;;;;;;;0.00;0.00;;;;;;;-0.98;100.00;100994.63;5220497;28;20376;-70
2022/11/20 07:44:29;;;;;;;0.30;0.00;;;;;;;-0.96;100.00;100990.22;5220183;28;20039;-71
2022/11/20 07:47:01;;;;;;;0.98;0.03;;;;;;;-0.93;100.00;100994.53;5222134;28;20063;-70
2022/11/20 07:49:32;;;;;;;0.35;0.05;;;;;;;-0.91;100.00;100987.50;5220846;28;20056;-70
2022/11/20 07:52:04;;;;;;;0.43;0.20;;;;;;;-0.87;100.00;100992.59;5217445;28;20540;-70
2022/11/20 07:54:35;;;;;;;0.00;0.00;;;;;;;-0.82;100.00;100997.72;5218312;28;20049;-71
2022/11/20 07:57:06;;;;;;;0.10;0.00;;;;;;;-0.80;100.00;100998.53;5220434;28;20037;-70
2022/11/20 07:59:38;;;;;;;0.28;0.00;;;;;;;-0.75;100.00;100983.53;5219017;28;20033;-70
2022/11/20 08:02:11;;;;;;;0.15;0.05;;;;;;;-0.68;100.00;100998.19;5218989;28;20128;-70
2022/11/20 08:04:42;;;;;;;0.15;0.10;;;;;;;-0.60;100.00;100992.75;5223182;28;20030;-70
2022/11/20 08:07:13;;;;;;;0.30;0.00;;;;;;;-0.53;100.00;100998.69;5227944;28;20099;-70
2022/11/20 08:09:44;;;;;;;0.20;0.05;;;;;;;-0.47;100.00;100998.50;5228759;28;20036;-70
2022/11/20 08:15:10;;;;;;;0.00;0.00;;;;;;;-0.40;100.00;100987.81;5226470;28;20068;-70
2022/11/20 08:17:41;;;;;;;0.10;0.00;;;;;;;-0.36;100.00;100992.97;5228420;28;21256;-70
2022/11/20 08:20:12;;;;;;;0.00;0.00;;;;;;;-0.33;100.00;100993.72;5225566;28;20061;-69
2022/11/20 08:22:43;;;;;;;0.32;0.10;;;;;;;-0.30;100.00;100987.53;5220420;28;20025;-70
2022/11/20 08:25:15;;;;;;;0.20;0.10;;;;;;;-0.25;100.00;100994.38;5217492;28;20048;-70
2022/11/20 08:27:46;;;;;;;0.22;0.00;;;;;;;-0.17;100.00;100990.63;5221375;28;20031;-70
2022/11/20 08:30:17;;;;;;;0.00;0.00;;;;;;;-0.12;100.00;100989.59;5220770;28;20512;-70
2022/11/20 08:32:49;;;;;;;0.50;0.10;;;;;;;-0.06;100.00;100992.06;5226600;28;20038;-70
2022/11/20 08:35:21;;;;;;;0.22;0.00;;;;;;;0.01;100.00;100997.13;5220865;28;20037;-69
2022/11/20 08:37:52;;;;;;;0.20;0.00;;;;;;;0.06;100.00;100988.22;5216209;28;20625;-70
2022/11/20 08:40:24;;;;;;;0.10;0.00;;;;;;;0.11;100.00;100983.66;5217132;28;20052;-70
2022/11/20 08:42:55;;;;;;;0.43;0.00;;;;;;;0.16;100.00;100984.38;5217564;28;20039;-70
2022/11/20 08:45:26;;;;;;;0.17;0.00;;;;;;;0.21;100.00;100986.84;5220494;28;20115;-70
2022/11/20 08:48:04;;;;;;;0.13;0.00;;;;;;;0.26;100.00;100984.94;5219838;28;20044;-70
2022/11/20 08:50:35;;;;;;;0.22;0.00;;;;;;;0.31;100.00;100979.56;5212211;28;20112;-69
2022/11/20 08:53:06;;;;;;;0.00;0.00;;;;;;;0.37;100.00;100988.09;5216827;28;20021;-70
2022/11/20 08:55:39;;;;;;;0.00;0.00;;;;;;;0.42;100.00;100989.72;5214247;28;20045;-70
2022/11/20 08:58:10;;;;;;;0.10;0.00;;;;;;;0.47;100.00;100987.81;5217978;28;20030;-70
2022/11/20 09:00:41;;;;;;;0.10;0.00;;;;;;;0.51;100.00;100986.78;5219050;28;20044;-70
2022/11/20 09:03:13;;;;;;;0.40;0.10;;;;;;;0.56;100.00;100983.13;5220613;28;20036;-70
2022/11/20 09:05:44;;;;;;;0.57;0.10;;;;;;;0.61;100.00;100976.84;5220183;28;20171;-70
2022/11/20 09:08:16;;;;;;;0.25;0.10;;;;;;;0.66;100.00;100977.56;5222490;28;20048;-70
2022/11/20 09:10:51;;;;;;;0.10;0.00;;;;;;;0.73;100.00;100979.06;5220174;28;20090;-70
2022/11/20 09:13:25;;;;;;;0.20;0.00;;;;;;;0.80;100.00;100977.94;5225628;28;20025;-71
2022/11/20 09:15:59;;;;;;;0.17;0.10;;;;;;;0.88;100.00;100978.56;5216286;28;20029;-70
2022/11/20 09:18:35;;;;;;;0.05;0.00;;;;;;;0.92;100.00;100972.28;5219977;28;20872;-70
2022/11/20 09:21:10;;;;;;;0.10;0.00;;;;;;;0.99;100.00;100967.66;5219414;28;20025;-70
2022/11/20 09:23:42;;;;;;;0.05;0.00;;;;;;;1.05;100.00;100959.56;5218734;28;20022;-70
2022/11/20 09:26:13;;;;;;;0.00;0.00;;;;;;;1.13;100.00;100957.56;5221732;28;20065;-70
2022/11/20 09:28:45;;;;;;;0.00;0.00;;;;;;;1.20;100.00;100950.28;5229347;28;20033;-70
2022/11/20 09:31:24;;;;;;;0.08;0.03;;;;;;;1.25;100.00;100947.50;5221363;28;20388;-70
2022/11/20 09:33:55;;;;;;;0.10;0.00;;;;;;;1.28;100.00;100950.00;5226612;28;20108;-70
2022/11/20 09:36:26;;;;;;;0.90;0.00;;;;;;;1.33;100.00;100941.03;5228672;28;20399;-70
2022/11/20 09:38:58;;;;;;;1.55;0.00;;;;;;;1.37;100.00;100934.75;5227871;28;20586;-69
2022/11/20 09:41:52;;;;;;;1.25;0.20;;;;;;;1.43;100.00;100924.94;5228065;28;21268;-69
2022/11/20 09:44:41;;;;;;;0.47;0.10;;;;;;;1.43;100.00;100920.53;5224828;28;20112;-69
2022/11/20 09:47:23;;;;;;;1.00;0.25;;;;;;;1.47;100.00;100924.75;5225386;28;20120;-69
2022/11/20 09:50:12;;;;;;;0.60;0.10;;;;;;;1.50;100.00;100926.44;5222091;28;20029;-70
2022/11/20 09:53:08;;;;;;;1.27;0.15;;;;;;;1.54;100.00;100928.88;5214512;28;20038;-69
2022/11/20 09:55:39;;;;;;;0.17;0.08;;;;;;;1.60;100.00;100924.31;5219625;28;20032;-69
2022/11/20 09:58:25;;;;;;;0.43;0.15;;;;;;;1.66;100.00;100919.66;5218844;28;20033;-69
2022/11/20 10:01:03;;;;;;;0.38;0.10;;;;;;;1.68;100.00;100912.56;5215538;28;20035;-69
2022/11/20 10:03:44;;;;;;;0.82;0.17;;;;;;;1.71;100.00;100909.84;5218082;28;20107;-69
2022/11/20 10:06:18;;;;;;;0.70;0.05;;;;;;;1.76;100.00;100907.00;5215585;28;20423;-69
2022/11/20 10:09:01;;;;;;;0.15;0.10;;;;;;;1.81;100.00;100901.59;5219480;28;20049;-69
2022/11/20 10:11:51;;;;;;;0.57;0.45;;;;;;;1.90;100.00;100901.22;5214301;28;20116;-69
2022/11/20 10:14:41;;;;;;;0.00;0.00;;;;;;;1.94;100.00;100881.78;5209468;28;20037;-70
2022/11/20 10:17:39;;;;;;;0.30;0.00;;;;;;;2.00;100.00;100872.78;5213148;28;20040;-69
2022/11/20 10:21:01;;;;;;;0.32;0.00;;;;;;;2.07;100.00;100854.03;5219115;28;20029;-69
2022/11/20 10:23:53;;;;;;;0.35;0.30;;;;;;;2.14;100.00;100852.84;5171742;28;20088;-68
2022/11/20 10:26:50;;;;;;;2.08;0.00;;;;;;;2.21;100.00;100847.34;5176236;28;20128;-69
2022/11/20 10:29:32;;;;;;;0.35;0.00;;;;;;;2.24;100.00;100863.00;5208456;28;20404;-70
2022/11/20 10:32:20;;;;;;;0.40;0.10;;;;;;;2.29;100.00;100858.41;5217908;28;21287;-69
2022/11/20 10:35:13;;;;;;;0.30;0.08;;;;;;;2.35;100.00;100850.25;5217781;28;20044;-70
2022/11/20 10:37:50;;;;;;;0.00;0.00;;;;;;;2.38;100.00;100834.34;5219871;28;20480;-69
2022/11/20 10:40:34;;;;;;;0.10;0.00;;;;;;;2.43;100.00;100821.81;5221529;28;20478;-69
2022/11/20 10:43:14;;;;;;;0.43;0.20;;;;;;;2.46;100.00;100826.94;5222572;28;20033;-70
2022/11/20 10:45:53;;;;;;;0.55;0.00;;;;;;;2.53;100.00;100827.53;5224739;28;20494;-70
2022/11/20 10:48:26;;;;;;;0.13;0.00;;;;;;;2.58;100.00;100809.75;5228162;28;20052;-70
2022/11/20 10:51:03;;;;;;;0.68;0.20;;;;;;;2.63;100.00;100809.56;5224814;28;20060;-71
2022/11/20 10:53:43;;;;;;;0.28;0.00;;;;;;;2.69;100.00;100810.13;5225599;28;20029;-69
2022/11/20 10:56:20;;;;;;;0.57;0.10;;;;;;;2.72;100.00;100793.34;5230807;28;20079;-69
2022/11/20 10:59:04;;;;;;;0.25;0.10;;;;;;;2.75;100.00;100796.69;5232009;28;20029;-69
2022/11/20 11:01:41;;;;;;;0.15;0.00;;;;;;;2.79;100.00;100786.03;5240953;28;20040;-70
2022/11/20 11:04:28;;;;;;;0.22;0.00;;;;;;;2.81;100.00;100790.28;5228236;28;20037;-69
2022/11/20 11:07:10;;;;;;;0.05;0.00;;;;;;;2.83;100.00;100791.06;5224028;28;20037;-70
2022/11/20 11:09:51;;;;;;;0.65;0.15;;;;;;;2.87;100.00;100786.53;5224484;28;20479;-70
2022/11/20 11:12:28;;;;;;;0.88;0.20;;;;;;;2.88;100.00;100773.28;5224986;28;20041;-69
2022/11/20 11:14:59;;;;;;;0.73;0.28;;;;;;;2.89;100.00;100776.78;5230895;28;20562;-68
2022/11/20 11:17:33;;;;;;;0.70;0.20;;;;;;;2.91;100.00;100778.41;5228572;28;20092;-68
2022/11/20 11:20:11;;;;;;;0.20;0.10;;;;;;;2.96;100.00;100777.34;5226970;28;20022;-68
2022/11/20 11:22:52;;;;;;;1.48;0.10;;;;;;;2.98;100.00;100776.34;5230908;28;20475;-70
2022/11/20 11:25:36;;;;;;;1.10;0.10;;;;;;;2.99;100.00;100770.13;5228646;28;20037;-70
2022/11/20 11:28:16;;;;;;;1.05;0.20;;;;;;;3.06;100.00;100776.00;5224226;28;20109;-70
2022/11/20 11:30:50;;;;;;;1.80;0.35;;;;;;;3.08;100.00;100764.44;5218025;28;20065;-69
2022/11/20 11:33:27;;;;;;;0.43;0.00;;;;;;;3.12;100.00;100770.44;5220019;28;20029;-68
2022/11/20 11:36:01;;;;;;;0.20;0.10;;;;;;;3.13;100.00;100766.88;5231211;28;20030;-68
2022/11/20 11:38:36;;;;;;;0.45;0.13;;;;;;;3.13;100.00;100759.81;5230750;28;20398;-70
2022/11/20 11:41:15;;;;;;;1.30;0.20;;;;;;;3.17;100.00;100757.06;5229345;28;20040;-70
2022/11/20 11:46:56;;;;;;;0.15;0.00;;;;;;;3.20;100.00;100747.19;5228554;28;20088;-68
2022/11/20 11:49:27;;;;;;;0.28;0.00;;;;;;;3.20;100.00;100736.66;5232529;28;20046;-70
2022/11/20 11:52:07;;;;;;;0.17;0.00;;;;;;;3.24;100.00;100743.50;5230834;28;20054;-69
2022/11/20 11:54:44;;;;;;;0.45;0.10;;;;;;;3.24;100.00;100729.44;5230849;28;20042;-70
2022/11/20 11:57:24;;;;;;;1.63;0.20;;;;;;;3.25;100.00;100731.16;5229484;28;20045;-70
2022/11/20 12:00:16;;;;;;;0.38;0.10;;;;;;;3.30;100.00;100722.13;5224316;28;20125;-70